Time;durP1;ratioP1;P1;durP2;ratioP2;P2;SDS_P1;SDS_P2;PMS_P1;PMS_P2;Temp;Humidity;BMP_temperature;BMP_pressure;BME280_temperature;BME280_humidity;BME280_pressure;Samples;Min_cycle;Max_cycle;Signal;HPM_P1;HPM_P2
2022/03/27 00:00:39;;;;;;;20.67;18.57;;;7.20;99.90;;;;;;5095627;28;20464;-77
2022/03/27 00:03:08;;;;;;;23.40;16.27;;;7.20;99.90;;;;;;5100931;28;20452;-78
2022/03/27 00:05:37;;;;;;;16.20;14.47;;;7.20;99.90;;;;;;5088427;28;20469;-77
2022/03/27 00:08:06;;;;;;;19.30;15.50;;;7.20;99.90;;;;;;5080089;28;20547;-78
2022/03/27 00:11:23;;;;;;;16.70;15.00;;;7.20;99.90;;;;;;5079089;28;20556;-78
2022/03/27 00:13:23;;;;;;;16.57;14.87;;;7.20;99.90;;;;;;5079233;28;20452;-77
2022/03/27 00:15:51;;;;;;;16.60;14.77;;;7.20;99.90;;;;;;5078837;28;20456;-77
2022/03/27 00:18:19;;;;;;;15.47;13.97;;;7.20;99.90;;;;;;5078347;28;20512;-78
2022/03/27 00:20:49;;;;;;;18.43;14.40;;;7.20;99.90;;;;;;5078255;28;20538;-78
2022/03/27 00:23:17;;;;;;;18.63;12.83;;;7.20;99.90;;;;;;5095929;28;20463;-78
2022/03/27 00:25:45;;;;;;;14.53;13.00;;;7.20;99.90;;;;;;5097437;28;20978;-77
2022/03/27 00:28:14;;;;;;;17.47;13.00;;;7.20;99.90;;;;;;5099405;28;20447;-78
2022/03/27 00:30:42;;;;;;;17.80;13.70;;;7.20;99.90;;;;;;5099084;28;20467;-78
2022/03/27 00:33:10;;;;;;;14.10;12.40;;;7.20;99.90;;;;;;5099358;28;20538;-78
2022/03/27 00:35:39;;;;;;;17.23;12.03;;;7.20;99.90;;;;;;5100726;28;20441;-79
2022/03/27 00:38:08;;;;;;;16.60;10.43;;;7.20;99.90;;;;;;5081879;28;20449;-78
2022/03/27 00:40:37;;;;;;;15.13;11.20;;;7.20;99.90;;;;;;5082845;28;20579;-77
2022/03/27 00:43:05;;;;;;;14.10;10.40;;;7.20;99.90;;;;;;5091102;28;20488;-77
2022/03/27 00:45:34;;;;;;;14.97;9.93;;;7.10;99.90;;;;;;5081130;28;20472;-77
2022/03/27 00:48:02;;;;;;;13.40;9.63;;;7.20;99.90;;;;;;5081816;28;20475;-78
2022/03/27 00:50:30;;;;;;;15.73;11.30;;;7.20;99.90;;;;;;5079165;28;20467;-77
2022/03/27 00:52:59;;;;;;;16.63;10.53;;;7.10;99.90;;;;;;5078508;28;20454;-77
2022/03/27 00:55:29;;;;;;;18.43;10.83;;;7.10;99.90;;;;;;5078091;28;21049;-78
2022/03/27 00:57:58;;;;;;;17.17;10.50;;;7.10;99.90;;;;;;5078354;28;20476;-77
2022/03/27 01:01:04;;;;;;;18.90;10.50;;;7.20;99.90;;;;;;5078680;28;20558;-78
2022/03/27 01:03:33;;;;;;;15.07;10.10;;;7.20;99.90;;;;;;5041179;28;20470;-78
2022/03/27 01:06:02;;;;;;;11.87;10.00;;;7.20;99.90;;;;;;5054336;28;20505;-79
2022/03/27 01:11:20;;;;;;;17.30;10.53;;;7.20;99.90;;;;;;5028254;28;20550;-78
2022/03/27 01:13:50;;;;;;;16.00;10.30;;;7.20;99.90;;;;;;5056375;28;20463;-79
2022/03/27 01:16:33;;;;;;;14.70;10.30;;;7.20;99.90;;;;;;5059611;28;20481;-79
2022/03/27 01:19:02;;;;;;;19.07;10.93;;;7.20;99.90;;;;;;5057814;28;20934;-79
2022/03/27 01:21:32;;;;;;;18.00;10.57;;;7.20;99.90;;;;;;5057646;28;20538;-79
2022/03/27 01:24:00;;;;;;;18.30;10.17;;;7.20;99.90;;;;;;5058077;28;20457;-79
2022/03/27 01:26:29;;;;;;;20.13;10.40;;;7.20;99.90;;;;;;5091583;28;20558;-79
2022/03/27 01:28:57;;;;;;;18.37;10.80;;;7.20;99.90;;;;;;5097698;28;21001;-79
2022/03/27 01:31:25;;;;;;;19.43;9.70;;;7.20;99.90;;;;;;5101852;28;20949;-79
2022/03/27 01:33:54;;;;;;;15.57;9.90;;;7.20;99.90;;;;;;5100351;28;20450;-79
2022/03/27 01:36:23;;;;;;;19.10;10.97;;;7.20;99.90;;;;;;5099993;28;20537;-79
2022/03/27 01:38:55;;;;;;;17.87;9.87;;;7.20;99.90;;;;;;5101077;28;20440;-79
2022/03/27 01:41:24;;;;;;;19.03;10.47;;;7.10;99.90;;;;;;5086598;28;20449;-79
2022/03/27 01:43:52;;;;;;;23.93;11.23;;;7.10;99.90;;;;;;5099625;28;20442;-81
2022/03/27 01:46:21;;;;;;;15.63;10.67;;;7.20;99.90;;;;;;5101419;28;21033;-79
2022/03/27 01:48:50;;;;;;;22.37;11.50;;;7.20;99.90;;;;;;5099651;28;20455;-79
2022/03/27 01:51:18;;;;;;;21.57;12.17;;;7.20;99.90;;;;;;5084260;28;20473;-79
2022/03/27 01:53:46;;;;;;;22.80;11.33;;;7.20;99.90;;;;;;5099240;28;20495;-80
2022/03/27 01:56:16;;;;;;;27.60;12.93;;;7.20;99.90;;;;;;5096197;28;20486;-79
2022/03/27 01:58:44;;;;;;;21.03;12.70;;;7.20;99.90;;;;;;5097989;28;20486;-79
2022/03/27 02:01:12;;;;;;;22.30;12.67;;;7.20;99.90;;;;;;5079299;28;20445;-79
2022/03/27 02:03:41;;;;;;;21.33;13.07;;;7.20;99.90;;;;;;5078499;28;20441;-79
2022/03/27 02:06:09;;;;;;;19.53;11.80;;;7.20;99.90;;;;;;5078857;28;20477;-79
2022/03/27 02:08:37;;;;;;;25.93;14.00;;;7.20;99.90;;;;;;5080661;28;20442;-79
2022/03/27 02:11:06;;;;;;;26.93;12.30;;;7.20;99.90;;;;;;5079965;28;20502;-79
2022/03/27 02:13:36;;;;;;;22.50;14.53;;;7.20;99.90;;;;;;5078915;28;20613;-79
2022/03/27 02:16:05;;;;;;;25.27;13.60;;;7.20;99.90;;;;;;5079197;28;20876;-79
2022/03/27 02:18:33;;;;;;;24.80;13.53;;;7.20;99.90;;;;;;5079229;28;20484;-79
2022/03/27 02:21:02;;;;;;;21.97;12.00;;;7.20;99.90;;;;;;5079908;28;20448;-80
2022/03/27 02:23:31;;;;;;;22.60;12.87;;;7.20;99.90;;;;;;5082947;28;20489;-79
2022/03/27 02:26:00;;;;;;;24.43;12.20;;;7.20;99.90;;;;;;5058497;28;20458;-79
2022/03/27 02:28:28;;;;;;;27.17;14.13;;;7.20;99.90;;;;;;5058811;28;20541;-79
2022/03/27 02:30:58;;;;;;;25.03;14.27;;;7.20;99.90;;;;;;5058420;28;20473;-79
2022/03/27 02:33:26;;;;;;;24.30;13.97;;;7.20;99.90;;;;;;5058197;28;20496;-79
2022/03/27 02:35:54;;;;;;;19.90;13.20;;;7.20;99.90;;;;;;5059992;28;20824;-79
2022/03/27 02:38:22;;;;;;;23.37;13.47;;;7.20;99.90;;;;;;5059147;28;20437;-78
2022/03/27 02:40:51;;;;;;;24.03;12.80;;;7.20;99.90;;;;;;5080522;28;20536;-79
2022/03/27 02:43:19;;;;;;;20.63;13.33;;;7.20;99.90;;;;;;5096492;28;20975;-79
2022/03/27 02:45:49;;;;;;;24.57;13.40;;;7.20;99.90;;;;;;5096691;28;20454;-79
2022/03/27 02:48:19;;;;;;;23.37;14.67;;;7.20;99.90;;;;;;5097956;28;20890;-79
2022/03/27 02:50:47;;;;;;;26.03;15.40;;;7.20;99.90;;;;;;5096667;28;20512;-78
2022/03/27 02:53:16;;;;;;;31.10;15.17;;;7.20;99.90;;;;;;5089270;28;20969;-79
2022/03/27 02:55:44;;;;;;;32.73;15.43;;;7.20;99.90;;;;;;5057373;28;20506;-78
2022/03/27 02:58:12;;;;;;;33.23;17.77;;;7.20;99.90;;;;;;5057529;28;20454;-79
2022/03/27 03:00:42;;;;;;;32.50;17.87;;;7.20;99.90;;;;;;5056668;28;20458;-80
2022/03/27 03:03:10;;;;;;;29.20;15.80;;;7.20;99.90;;;;;;5057191;28;20440;-78
2022/03/27 03:05:42;;;;;;;25.17;15.57;;;7.20;99.90;;;;;;5058200;28;20436;-79
2022/03/27 03:08:12;;;;;;;29.17;17.10;;;7.20;99.90;;;;;;5058232;28;20437;-79
2022/03/27 03:10:42;;;;;;;29.80;16.10;;;7.10;99.90;;;;;;5068465;28;20446;-79
2022/03/27 03:13:11;;;;;;;29.37;16.50;;;7.20;99.90;;;;;;5077977;28;20504;-79
2022/03/27 03:15:41;;;;;;;29.27;14.70;;;7.20;99.90;;;;;;5076647;28;20479;-78
2022/03/27 03:18:11;;;;;;;27.57;16.60;;;7.20;99.90;;;;;;5076347;28;20461;-79
2022/03/27 03:20:41;;;;;;;26.03;16.10;;;7.20;99.90;;;;;;5076609;28;20460;-79
2022/03/27 03:23:09;;;;;;;26.80;15.57;;;7.10;99.90;;;;;;5078103;28;20867;-79
2022/03/27 03:25:39;;;;;;;27.47;17.80;;;7.20;99.90;;;;;;5081426;28;20453;-79
2022/03/27 03:28:28;;;;;;;29.83;16.17;;;7.10;99.90;;;;;;5097841;28;20441;-81
2022/03/27 03:30:56;;;;;;;32.13;19.13;;;7.10;99.90;;;;;;5098752;28;20440;-78
2022/03/27 03:33:25;;;;;;;32.13;21.67;;;7.20;99.90;;;;;;5098158;28;20455;-78
2022/03/27 03:35:55;;;;;;;31.33;21.43;;;7.20;99.90;;;;;;5095672;28;20455;-79
2022/03/27 03:38:23;;;;;;;40.57;23.20;;;7.10;99.90;;;;;;5068062;28;20544;-78
2022/03/27 03:40:51;;;;;;;28.30;20.77;;;7.10;99.90;;;;;;5066901;28;20454;-79
2022/03/27 03:43:20;;;;;;;33.20;21.43;;;7.10;99.90;;;;;;5097067;28;20780;-79
2022/03/27 03:45:49;;;;;;;48.97;25.60;;;7.10;99.90;;;;;;5096655;28;20446;-79
2022/03/27 03:48:18;;;;;;;42.90;27.30;;;7.20;99.90;;;;;;5096949;28;20450;-78
2022/03/27 03:50:46;;;;;;;40.33;26.47;;;7.20;99.90;;;;;;5096903;28;20935;-79
2022/03/27 03:53:16;;;;;;;39.10;24.60;;;7.10;99.90;;;;;;5096434;28;21011;-78
2022/03/27 03:55:44;;;;;;;38.00;25.63;;;7.20;99.90;;;;;;5097639;28;20466;-80
2022/03/27 03:58:12;;;;;;;40.17;25.23;;;7.10;99.90;;;;;;5081536;28;20530;-79
2022/03/27 04:00:43;;;;;;;39.90;26.40;;;7.20;99.90;;;;;;5096184;28;20488;-79
2022/03/27 04:03:11;;;;;;;51.80;27.80;;;7.20;99.90;;;;;;5095150;28;20461;-78
2022/03/27 04:05:40;;;;;;;36.80;24.03;;;7.10;99.90;;;;;;5095517;28;20466;-79
2022/03/27 04:08:08;;;;;;;40.47;24.40;;;7.20;99.90;;;;;;5098581;28;20550;-79
2022/03/27 04:10:38;;;;;;;38.50;21.77;;;7.20;99.90;;;;;;5097615;28;20478;-79
2022/03/27 04:13:06;;;;;;;35.07;22.57;;;7.20;99.90;;;;;;5080248;28;20476;-79
2022/03/27 04:15:34;;;;;;;36.40;23.97;;;7.20;99.90;;;;;;5076165;28;20554;-79
2022/03/27 04:18:22;;;;;;;35.93;23.10;;;7.20;99.90;;;;;;5076576;28;20440;-79
2022/03/27 04:20:51;;;;;;;34.23;24.40;;;7.20;99.90;;;;;;5077319;28;20432;-79
2022/03/27 04:23:20;;;;;;;37.13;26.80;;;7.20;99.90;;;;;;5086276;28;20474;-79
2022/03/27 04:25:49;;;;;;;43.50;25.50;;;7.20;99.90;;;;;;5086720;28;20453;-80
2022/03/27 04:28:18;;;;;;;36.63;25.53;;;7.20;99.90;;;;;;5060184;28;20973;-79
2022/03/27 04:30:46;;;;;;;35.93;24.43;;;7.20;99.90;;;;;;5096523;28;20447;-79
2022/03/27 04:33:14;;;;;;;38.73;24.13;;;7.20;99.90;;;;;;5097036;28;20501;-79
2022/03/27 04:35:43;;;;;;;38.33;24.60;;;7.20;99.90;;;;;;5095643;28;20446;-79
2022/03/27 04:38:11;;;;;;;38.43;26.63;;;7.10;99.90;;;;;;5096153;28;20450;-79
2022/03/27 04:40:39;;;;;;;37.90;26.30;;;7.20;99.90;;;;;;5095934;28;20451;-79
2022/03/27 04:43:10;;;;;;;44.70;28.27;;;7.10;99.90;;;;;;5095778;28;20882;-79
2022/03/27 04:45:38;;;;;;;39.27;27.00;;;7.10;99.90;;;;;;5075738;28;21065;-78
2022/03/27 04:48:06;;;;;;;38.23;26.83;;;7.10;99.90;;;;;;5078061;28;20468;-80
2022/03/27 04:50:34;;;;;;;43.50;27.00;;;7.20;99.90;;;;;;5088862;28;20545;-80
2022/03/27 04:53:03;;;;;;;34.47;24.30;;;7.10;99.90;;;;;;5101354;28;20517;-78
2022/03/27 04:55:31;;;;;;;38.07;24.20;;;7.10;99.90;;;;;;5099770;28;20490;-78
2022/03/27 04:57:59;;;;;;;34.30;24.07;;;7.10;99.90;;;;;;5100938;28;20469;-79
2022/03/27 05:00:29;;;;;;;34.60;22.60;;;7.10;99.90;;;;;;5100015;28;20447;-80
2022/03/27 05:02:58;;;;;;;35.90;22.90;;;7.10;99.90;;;;;;5096660;28;20467;-79
2022/03/27 05:05:27;;;;;;;35.33;21.60;;;7.00;99.90;;;;;;5080453;28;20463;-79
2022/03/27 05:07:56;;;;;;;32.40;21.40;;;7.00;99.90;;;;;;5078655;28;20521;-79
2022/03/27 05:10:24;;;;;;;29.90;19.70;;;7.10;99.90;;;;;;5080849;28;20444;-79
2022/03/27 05:12:53;;;;;;;27.97;19.53;;;7.10;99.90;;;;;;5080185;28;20541;-79
2022/03/27 05:15:21;;;;;;;30.60;20.43;;;7.00;99.90;;;;;;5080067;28;20452;-79
2022/03/27 05:17:53;;;;;;;38.30;19.90;;;7.00;99.90;;;;;;5081560;28;20567;-79
2022/03/27 05:20:22;;;;;;;28.53;19.03;;;7.00;99.90;;;;;;5059886;28;20442;-79
2022/03/27 05:22:51;;;;;;;27.70;17.30;;;7.00;99.90;;;;;;5059300;28;20462;-79
2022/03/27 05:25:19;;;;;;;28.93;18.43;;;7.00;99.90;;;;;;5058605;28;20550;-78
2022/03/27 05:27:50;;;;;;;34.00;17.63;;;7.00;99.90;;;;;;5059660;28;20917;-79
2022/03/27 05:30:21;;;;;;;30.70;18.50;;;7.00;99.90;;;;;;5058315;28;20446;-79
2022/03/27 05:32:52;;;;;;;31.17;16.57;;;7.00;99.90;;;;;;5079006;28;20533;-79
2022/03/27 05:35:21;;;;;;;33.57;16.93;;;7.00;99.90;;;;;;5098739;28;20547;-79
2022/03/27 05:37:50;;;;;;;29.30;16.20;;;6.90;99.90;;;;;;5085729;28;20563;-79
2022/03/27 05:40:21;;;;;;;27.57;14.17;;;6.90;99.90;;;;;;5078571;28;20537;-79
2022/03/27 05:42:50;;;;;;;24.60;13.33;;;6.90;99.90;;;;;;5078009;28;20846;-78
2022/03/27 05:45:20;;;;;;;26.10;14.47;;;7.00;99.90;;;;;;5090414;28;20455;-79
2022/03/27 05:47:48;;;;;;;23.60;14.60;;;6.90;99.90;;;;;;5098315;28;20483;-79
2022/03/27 05:50:19;;;;;;;32.83;13.83;;;7.00;99.90;;;;;;5098967;28;20447;-78
2022/03/27 05:52:47;;;;;;;26.60;13.80;;;6.90;99.90;;;;;;5096364;28;20571;-78
2022/03/27 05:55:16;;;;;;;21.83;13.50;;;6.90;99.90;;;;;;5092251;28;20501;-80
2022/03/27 05:57:44;;;;;;;26.10;15.80;;;6.90;99.90;;;;;;5079820;28;20466;-78
2022/03/27 06:00:16;;;;;;;18.73;11.90;;;6.90;99.90;;;;;;5078003;28;20482;-79
2022/03/27 06:02:44;;;;;;;22.03;14.10;;;6.90;99.90;;;;;;5079205;28;20442;-79
2022/03/27 06:05:13;;;;;;;26.87;14.27;;;7.00;99.90;;;;;;5079392;28;20440;-79
2022/03/27 06:07:48;;;;;;;25.23;12.37;;;6.90;99.90;;;;;;5077647;28;21112;-78
2022/03/27 06:10:17;;;;;;;23.33;13.50;;;7.00;99.90;;;;;;5079111;28;20419;-78
2022/03/27 06:12:46;;;;;;;25.50;14.53;;;6.90;99.90;;;;;;5078007;28;20470;-80
2022/03/27 06:15:15;;;;;;;20.83;12.93;;;6.90;99.90;;;;;;5079683;28;20459;-80
2022/03/27 06:17:45;;;;;;;22.43;13.70;;;7.00;99.90;;;;;;5077774;28;20655;-78
2022/03/27 06:20:15;;;;;;;27.10;13.93;;;6.90;99.90;;;;;;5086801;28;20452;-79
2022/03/27 06:22:44;;;;;;;20.83;15.43;;;7.00;99.90;;;;;;5091685;28;20524;-78
2022/03/27 06:25:15;;;;;;;22.33;13.70;;;7.00;99.90;;;;;;5098132;28;20459;-79
2022/03/27 06:27:44;;;;;;;25.00;12.80;;;7.00;99.90;;;;;;5099245;28;20482;-78
2022/03/27 06:30:15;;;;;;;27.63;14.43;;;7.00;99.90;;;;;;5098000;28;20439;-79
2022/03/27 06:32:44;;;;;;;24.00;13.57;;;7.00;99.90;;;;;;5098535;28;20471;-79
2022/03/27 06:35:13;;;;;;;27.87;13.57;;;7.10;99.90;;;;;;5086638;28;20537;-79
2022/03/27 06:37:42;;;;;;;25.67;13.10;;;7.10;99.90;;;;;;5086971;28;20562;-80
2022/03/27 06:40:12;;;;;;;31.97;11.80;;;7.10;99.90;;;;;;5098066;28;20457;-79
2022/03/27 06:42:45;;;;;;;28.00;14.33;;;7.20;99.90;;;;;;5099917;28;20515;-79
2022/03/27 06:45:15;;;;;;;23.63;14.17;;;7.20;99.90;;;;;;5096645;28;20814;-78
2022/03/27 06:47:45;;;;;;;23.80;12.57;;;7.30;99.90;;;;;;5089645;28;20483;-79
2022/03/27 06:50:14;;;;;;;23.43;12.80;;;7.30;99.90;;;;;;5097634;28;20450;-79
2022/03/27 06:52:47;;;;;;;24.87;14.00;;;7.30;99.90;;;;;;5088059;28;20887;-79
2022/03/27 06:55:17;;;;;;;25.80;14.53;;;7.30;99.90;;;;;;5079504;28;20451;-79
2022/03/27 06:57:47;;;;;;;27.03;13.10;;;7.40;99.90;;;;;;5078181;28;20974;-79
2022/03/27 07:03:06;;;;;;;26.10;15.30;;;7.40;99.90;;;;;;5078607;28;20449;-79
2022/03/27 07:05:40;;;;;;;27.00;14.10;;;7.40;99.90;;;;;;5085191;28;20460;-79
2022/03/27 07:08:10;;;;;;;28.60;15.13;;;7.50;99.90;;;;;;5080056;28;20547;-79
2022/03/27 07:10:38;;;;;;;31.37;17.03;;;7.50;99.90;;;;;;5096961;28;20451;-80
2022/03/27 07:13:09;;;;;;;30.20;15.27;;;7.50;99.90;;;;;;5100043;28;20477;-79
2022/03/27 07:15:39;;;;;;;29.13;14.40;;;7.50;99.90;;;;;;5091306;28;20551;-79
2022/03/27 07:18:08;;;;;;;27.93;14.40;;;7.50;99.90;;;;;;5078781;28;20989;-81
2022/03/27 07:20:38;;;;;;;29.33;14.37;;;7.60;99.90;;;;;;5093613;28;20485;-79
2022/03/27 07:23:09;;;;;;;30.63;15.60;;;7.60;99.90;;;;;;5086329;28;20451;-79
2022/03/27 07:25:40;;;;;;;29.43;13.80;;;7.60;99.90;;;;;;5086063;28;20476;-79
2022/03/27 07:28:11;;;;;;;30.07;15.20;;;7.70;99.90;;;;;;5099266;28;20467;-80
2022/03/27 07:30:40;;;;;;;29.33;13.77;;;7.70;99.90;;;;;;5083419;28;20931;-80
2022/03/27 07:33:09;;;;;;;27.67;14.10;;;7.70;99.90;;;;;;5079344;28;20857;-80
2022/03/27 07:35:37;;;;;;;24.83;13.13;;;7.80;99.90;;;;;;5078523;28;20449;-81
2022/03/27 07:38:06;;;;;;;30.20;13.63;;;7.80;99.90;;;;;;5093731;28;20787;-80
2022/03/27 07:40:35;;;;;;;32.07;15.50;;;7.80;99.90;;;;;;5084804;28;20448;-79
2022/03/27 07:43:03;;;;;;;28.13;14.07;;;7.80;99.90;;;;;;5097743;28;20465;-79
2022/03/27 07:45:35;;;;;;;36.93;14.33;;;7.80;99.90;;;;;;5095677;28;20444;-79
2022/03/27 07:48:04;;;;;;;30.43;13.63;;;7.80;99.90;;;;;;5099060;28;20564;-80
2022/03/27 07:50:33;;;;;;;26.30;12.93;;;7.80;99.90;;;;;;5084552;28;20453;-80
2022/03/27 07:53:01;;;;;;;23.37;13.50;;;7.80;99.90;;;;;;5072833;28;20537;-80
2022/03/27 07:55:29;;;;;;;26.40;13.60;;;7.80;99.90;;;;;;5092333;28;20529;-79
2022/03/27 07:57:58;;;;;;;30.07;14.93;;;7.90;99.90;;;;;;5094924;28;20499;-79
2022/03/27 08:00:28;;;;;;;26.20;12.93;;;7.90;99.90;;;;;;5098972;28;21023;-80
2022/03/27 08:02:58;;;;;;;28.50;14.03;;;8.00;99.90;;;;;;5098468;28;20949;-80
2022/03/27 08:05:28;;;;;;;20.50;12.97;;;8.00;99.90;;;;;;5097971;28;20533;-81
2022/03/27 08:07:56;;;;;;;22.83;12.50;;;8.10;99.90;;;;;;5098037;28;20465;-81
2022/03/27 08:10:24;;;;;;;26.30;14.33;;;8.10;99.90;;;;;;5097515;28;20460;-80
2022/03/27 08:12:53;;;;;;;31.03;12.77;;;8.20;99.90;;;;;;5098496;28;20451;-81
2022/03/27 08:15:21;;;;;;;22.40;13.03;;;8.20;99.90;;;;;;5098698;28;20993;-81
2022/03/27 08:17:53;;;;;;;23.80;14.50;;;8.20;99.90;;;;;;5098976;28;20456;-81
2022/03/27 08:20:25;;;;;;;23.30;14.00;;;8.30;99.90;;;;;;5098360;28;21015;-80
2022/03/27 08:22:54;;;;;;;30.83;14.70;;;8.30;99.90;;;;;;5099889;28;20835;-81
2022/03/27 08:28:10;;;;;;;23.70;12.50;;;8.40;99.90;;;;;;5082088;28;20506;-81
2022/03/27 08:30:39;;;;;;;27.50;13.07;;;8.50;99.90;;;;;;5081787;28;20506;-81
2022/03/27 08:33:09;;;;;;;23.40;13.40;;;8.50;99.90;;;;;;5081686;28;20454;-81
2022/03/27 08:35:41;;;;;;;22.20;12.67;;;8.60;99.90;;;;;;5097072;28;20492;-80
2022/03/27 08:38:11;;;;;;;27.13;13.40;;;8.60;99.90;;;;;;5100906;28;20439;-80
2022/03/27 08:40:40;;;;;;;25.50;13.03;;;8.60;99.90;;;;;;5092953;28;20456;-80
2022/03/27 08:43:10;;;;;;;24.80;12.60;;;8.70;99.90;;;;;;5085794;28;21009;-80
2022/03/27 08:45:39;;;;;;;29.23;13.50;;;8.80;99.90;;;;;;5103745;28;20447;-80
2022/03/27 08:48:08;;;;;;;23.00;12.67;;;8.80;99.90;;;;;;5102384;28;20584;-80
2022/03/27 08:50:46;;;;;;;23.90;12.43;;;8.80;99.90;;;;;;5103225;28;20505;-80
2022/03/27 08:53:20;;;;;;;25.13;13.10;;;8.80;99.90;;;;;;5085085;28;20499;-80
2022/03/27 08:55:56;;;;;;;29.77;14.67;;;8.80;99.90;;;;;;5060595;28;20728;-80
2022/03/27 08:58:33;;;;;;;25.93;12.57;;;8.90;99.90;;;;;;5061170;28;20441;-81
2022/03/27 09:01:01;;;;;;;29.63;14.03;;;8.90;99.90;;;;;;5077234;28;20492;-82
2022/03/27 09:03:30;;;;;;;25.80;13.97;;;8.90;99.90;;;;;;5078028;28;20453;-80
2022/03/27 09:06:01;;;;;;;27.20;12.47;;;8.90;99.90;;;;;;5090927;28;20447;-81
2022/03/27 09:08:36;;;;;;;28.20;14.93;;;8.90;99.90;;;;;;5105220;28;20432;-81
2022/03/27 09:11:06;;;;;;;31.57;14.10;;;9.00;99.90;;;;;;5100693;28;20444;-80
2022/03/27 09:13:34;;;;;;;25.67;14.30;;;9.00;99.90;;;;;;5101497;28;20460;-80
2022/03/27 09:16:04;;;;;;;27.40;13.40;;;9.00;99.90;;;;;;5100795;28;20464;-80
2022/03/27 09:18:44;;;;;;;31.00;13.73;;;9.10;99.90;;;;;;5100910;28;20448;-81
2022/03/27 09:21:19;;;;;;;30.63;15.13;;;9.10;99.90;;;;;;5085583;28;20460;-80
2022/03/27 09:23:53;;;;;;;26.83;13.57;;;9.20;99.90;;;;;;5098655;28;20822;-80
2022/03/27 09:26:22;;;;;;;21.60;12.57;;;9.20;99.90;;;;;;5084054;28;20485;-80
2022/03/27 09:28:52;;;;;;;31.73;14.67;;;9.30;99.90;;;;;;5081385;28;20938;-82
2022/03/27 09:31:24;;;;;;;28.50;13.13;;;9.40;99.90;;;;;;5080456;28;20449;-81
2022/03/27 09:33:54;;;;;;;25.27;13.43;;;9.50;99.90;;;;;;5080731;28;20487;-80
2022/03/27 09:36:25;;;;;;;31.00;14.43;;;9.50;99.90;;;;;;5080856;28;20461;-80
2022/03/27 09:39:00;;;;;;;32.03;14.27;;;9.60;99.90;;;;;;5079780;28;20977;-81
2022/03/27 09:41:34;;;;;;;26.80;12.70;;;9.70;99.90;;;;;;5094579;28;20488;-81
2022/03/27 09:44:05;;;;;;;24.13;12.83;;;9.80;99.90;;;;;;5095767;28;20462;-81
2022/03/27 09:46:51;;;;;;;23.97;12.47;;;9.90;99.90;;;;;;5079712;28;20480;-81
2022/03/27 09:49:21;;;;;;;26.60;13.93;;;10.10;99.90;;;;;;5080066;28;20437;-81
2022/03/27 09:51:59;;;;;;;24.03;12.87;;;10.10;99.90;;;;;;5079300;28;20453;-81
2022/03/27 09:54:29;;;;;;;27.50;13.67;;;10.20;99.90;;;;;;5080721;28;20552;-81
2022/03/27 09:56:58;;;;;;;25.03;12.70;;;10.20;99.90;;;;;;5078989;28;20469;-81
2022/03/27 09:59:27;;;;;;;27.33;12.33;;;10.20;99.90;;;;;;5079267;28;20456;-81
2022/03/27 10:01:56;;;;;;;26.50;13.27;;;10.30;99.90;;;;;;5079454;28;20951;-81
2022/03/27 10:04:24;;;;;;;25.37;12.97;;;10.30;99.90;;;;;;5063855;28;20461;-81
2022/03/27 10:06:53;;;;;;;27.63;13.53;;;10.40;99.90;;;;;;5100823;28;20452;-81
2022/03/27 10:09:23;;;;;;;27.03;13.30;;;10.60;99.90;;;;;;5100050;28;20543;-81
2022/03/27 10:11:53;;;;;;;28.93;13.40;;;10.60;99.90;;;;;;5100125;28;20456;-81
2022/03/27 10:14:21;;;;;;;27.23;13.03;;;10.60;99.90;;;;;;5076500;28;20484;-81
2022/03/27 10:16:49;;;;;;;28.10;12.27;;;10.60;99.90;;;;;;5058703;28;20480;-81
2022/03/27 10:19:25;;;;;;;29.17;13.67;;;10.60;99.90;;;;;;5075302;28;20537;-81
2022/03/27 10:21:55;;;;;;;24.60;12.73;;;10.70;99.90;;;;;;5095951;28;20447;-81
2022/03/27 10:24:30;;;;;;;29.43;13.33;;;10.70;99.90;;;;;;5075555;28;20446;-81
2022/03/27 10:27:01;;;;;;;29.57;13.10;;;10.70;99.90;;;;;;5060673;28;20496;-81
2022/03/27 10:29:30;;;;;;;26.20;12.90;;;10.80;99.90;;;;;;5086114;28;20452;-81
2022/03/27 10:31:59;;;;;;;28.57;13.93;;;10.90;99.90;;;;;;5100331;28;20446;-81
2022/03/27 10:34:30;;;;;;;28.20;13.37;;;10.90;99.90;;;;;;5094722;28;20524;-81
2022/03/27 10:37:06;;;;;;;24.53;13.50;;;11.00;99.90;;;;;;5078850;28;20563;-81
2022/03/27 10:39:42;;;;;;;29.63;12.07;;;11.10;99.90;;;;;;5080014;28;20423;-81
2022/03/27 10:42:20;;;;;;;26.53;13.40;;;11.20;99.90;;;;;;5090463;28;20536;-77
2022/03/27 10:44:54;;;;;;;23.77;13.20;;;11.30;99.90;;;;;;5090963;28;20987;-80
2022/03/27 10:47:24;;;;;;;23.13;12.17;;;11.40;99.90;;;;;;5097395;28;20460;-80
2022/03/27 10:50:24;;;;;;;28.70;13.13;;;11.50;99.90;;;;;;5088172;28;20453;-80
2022/03/27 10:53:12;;;;;;;23.27;11.43;;;11.60;99.90;;;;;;5074935;28;20442;-80
2022/03/27 10:55:44;;;;;;;25.17;13.73;;;11.70;99.90;;;;;;5077334;28;20465;-80
2022/03/27 10:58:33;;;;;;;26.10;12.60;;;11.70;99.90;;;;;;5077344;28;20468;-80
2022/03/27 11:01:03;;;;;;;21.90;11.40;;;11.80;99.90;;;;;;5077160;28;20449;-80
2022/03/27 11:03:49;;;;;;;23.27;14.10;;;11.90;99.90;;;;;;5076338;28;20544;-78
2022/03/27 11:06:26;;;;;;;21.00;11.17;;;11.90;99.90;;;;;;5096457;28;20467;-79
2022/03/27 11:08:55;;;;;;;24.60;12.47;;;11.90;99.90;;;;;;5081415;28;20447;-79
2022/03/27 11:12:04;;;;;;;20.90;12.47;;;11.90;99.90;;;;;;5077438;28;20445;-79
2022/03/27 11:15:00;;;;;;;22.20;12.57;;;12.00;99.90;;;;;;5077810;28;20437;-79
2022/03/27 11:17:38;;;;;;;23.60;12.20;;;12.00;99.90;;;;;;5077378;28;20461;-79
2022/03/27 11:20:08;;;;;;;24.50;13.40;;;12.00;99.90;;;;;;5090620;28;20594;-79
2022/03/27 11:22:47;;;;;;;24.40;13.53;;;12.00;99.90;;;;;;5078730;28;20540;-79
2022/03/27 11:25:35;;;;;;;24.77;12.27;;;12.00;99.90;;;;;;5077602;28;20962;-79
2022/03/27 11:28:10;;;;;;;24.00;14.23;;;12.00;99.90;;;;;;5077499;28;20465;-79
2022/03/27 11:30:41;;;;;;;26.37;12.10;;;12.00;99.90;;;;;;5075596;28;20450;-79
2022/03/27 11:33:19;;;;;;;20.43;12.60;;;12.00;99.90;;;;;;5077580;28;20505;-79
2022/03/27 11:36:24;;;;;;;22.73;13.00;;;12.00;99.90;;;;;;5089428;28;20509;-79
2022/03/27 11:39:02;;;;;;;28.00;12.50;;;12.00;99.90;;;;;;5020361;28;20536;-79
2022/03/27 11:41:38;;;;;;;22.83;12.50;;;12.10;99.90;;;;;;5020675;28;20540;-79
2022/03/27 11:45:06;;;;;;;21.67;12.63;;;12.10;99.90;;;;;;5041087;28;20803;-78
2022/03/27 11:47:20;;;;;;;22.73;12.57;;;12.10;99.90;;;;;;5057302;28;20481;-78
2022/03/27 11:49:51;;;;;;;26.27;12.50;;;12.10;99.90;;;;;;5064649;28;20448;-78
2022/03/27 11:52:21;;;;;;;19.83;12.43;;;12.20;99.90;;;;;;5074754;28;20557;-78
2022/03/27 11:55:04;;;;;;;24.47;13.33;;;12.20;99.90;;;;;;5056719;28;20509;-78
2022/03/27 11:57:43;;;;;;;19.87;13.47;;;12.30;99.90;;;;;;5095320;28;20460;-79
2022/03/27 12:00:13;;;;;;;25.30;14.47;;;12.30;99.90;;;;;;5095462;28;20889;-78
2022/03/27 12:02:43;;;;;;;22.10;13.43;;;12.40;99.90;;;;;;5097293;28;20457;-79
2022/03/27 12:05:15;;;;;;;28.30;13.10;;;12.40;99.90;;;;;;5084837;28;20461;-79
2022/03/27 12:07:51;;;;;;;21.97;12.30;;;12.40;99.90;;;;;;5097264;28;20539;-77
2022/03/27 12:10:20;;;;;;;23.83;12.80;;;12.40;99.90;;;;;;5094128;28;20479;-80
2022/03/27 12:12:59;;;;;;;23.10;13.50;;;12.40;99.90;;;;;;5097105;28;20964;-79
2022/03/27 12:15:41;;;;;;;22.93;13.03;;;12.40;99.90;;;;;;5096739;28;20819;-80
2022/03/27 12:18:13;;;;;;;24.67;14.77;;;12.40;99.90;;;;;;5098598;28;20531;-80
2022/03/27 12:20:49;;;;;;;22.03;13.80;;;12.40;99.90;;;;;;5096709;28;20547;-80
2022/03/27 12:23:22;;;;;;;22.50;12.70;;;12.50;99.90;;;;;;5096640;28;20455;-79
2022/03/27 12:31:59;;;;;;;19.97;13.30;;;12.60;99.90;;;;;;5096127;28;20816;-79
2022/03/27 12:34:28;;;;;;;21.60;13.63;;;12.70;99.90;;;;;;5093178;28;20461;-80
2022/03/27 12:37:09;;;;;;;22.70;14.10;;;12.70;99.90;;;;;;5075776;28;20580;-80
2022/03/27 12:39:39;;;;;;;22.50;12.20;;;12.80;99.90;;;;;;5077091;28;20524;-80
2022/03/27 12:42:07;;;;;;;21.97;15.00;;;12.90;99.90;;;;;;5091067;28;20480;-80
2022/03/27 12:44:51;;;;;;;22.73;13.00;;;12.90;99.90;;;;;;5097191;28;20532;-80
2022/03/27 12:47:29;;;;;;;20.60;13.00;;;13.00;99.90;;;;;;5096275;28;20456;-80
2022/03/27 12:49:58;;;;;;;24.00;14.77;;;13.00;99.90;;;;;;5095662;28;20448;-79
2022/03/27 12:52:28;;;;;;;24.57;13.50;;;13.10;99.90;;;;;;5096849;28;20457;-80
2022/03/27 12:54:58;;;;;;;24.17;14.30;;;13.10;99.90;;;;;;5083323;28;20444;-80
2022/03/27 12:57:46;;;;;;;17.67;14.10;;;13.20;99.90;;;;;;5095694;28;20479;-80
2022/03/27 13:00:15;;;;;;;22.80;14.40;;;13.20;99.90;;;;;;5095752;28;20532;-80
2022/03/27 13:02:43;;;;;;;24.07;14.10;;;13.20;99.90;;;;;;5081699;28;20449;-80
2022/03/27 13:05:14;;;;;;;16.43;13.10;;;13.20;99.90;;;;;;5078010;28;20445;-79
2022/03/27 13:07:54;;;;;;;24.40;15.17;;;13.30;99.90;;;;;;5095209;28;20467;-80
2022/03/27 13:10:24;;;;;;;23.87;15.37;;;13.30;99.90;;;;;;5082073;28;20553;-79